Time;durP1;ratioP1;P1;durP2;ratioP2;P2;SDS_P1;SDS_P2;PMS_P1;PMS_P2;Temp;Humidity;BMP_temperature;BMP_pressure;BME280_temperature;BME280_humidity;BME280_pressure;Samples;Min_cycle;Max_cycle;Signal;HPM_P1;HPM_P2
2022/03/07 00:02:07;;;;;;;8.10;2.63;;;-2.50;99.90;;;;;;5099360;28;20020;-83
2022/03/07 00:04:33;;;;;;;6.75;2.60;;;-2.50;99.90;;;;;;5085298;28;20037;-83
2022/03/07 00:06:59;;;;;;;6.05;2.80;;;-2.50;99.90;;;;;;5095800;28;20032;-83
2022/03/07 00:09:24;;;;;;;4.32;2.05;;;-2.40;99.90;;;;;;5094684;28;20060;-83
2022/03/07 00:11:50;;;;;;;5.00;2.35;;;-2.50;99.90;;;;;;5087560;28;20017;-83
2022/03/07 00:14:16;;;;;;;6.40;2.42;;;-2.50;99.90;;;;;;5086643;28;20029;-83
2022/03/07 00:16:41;;;;;;;7.93;2.72;;;-2.50;99.90;;;;;;5078631;28;20048;-83
2022/03/07 00:19:07;;;;;;;5.97;2.67;;;-2.50;99.90;;;;;;5088608;28;20056;-83
2022/03/07 00:21:34;;;;;;;8.70;2.85;;;-2.60;99.90;;;;;;5079661;28;20092;-83
2022/03/07 00:24:00;;;;;;;9.90;2.78;;;-2.60;99.90;;;;;;5086290;28;20039;-83
2022/03/07 00:26:25;;;;;;;10.35;3.17;;;-2.60;99.90;;;;;;5098954;28;20060;-83
2022/03/07 00:28:51;;;;;;;6.05;2.80;;;-2.60;99.90;;;;;;5091867;28;20035;-83
2022/03/07 00:31:20;;;;;;;5.30;2.47;;;-2.60;99.90;;;;;;5079206;28;20021;-83
2022/03/07 00:33:45;;;;;;;7.50;2.97;;;-2.60;99.90;;;;;;5084956;28;20028;-83
2022/03/07 00:36:11;;;;;;;6.20;2.78;;;-2.70;99.90;;;;;;5091233;28;20040;-83
2022/03/07 00:38:37;;;;;;;7.90;2.50;;;-2.80;99.90;;;;;;5093827;28;20024;-83
2022/03/07 00:41:03;;;;;;;5.65;2.67;;;-2.70;99.90;;;;;;5095820;28;20017;-83
2022/03/07 00:43:29;;;;;;;5.43;2.42;;;-2.80;99.90;;;;;;5090590;28;20051;-83
2022/03/07 00:45:54;;;;;;;13.63;3.10;;;-2.90;99.90;;;;;;5090039;28;20048;-82
2022/03/07 00:48:20;;;;;;;7.35;3.00;;;-2.70;99.90;;;;;;5088798;28;20025;-83
2022/03/07 00:50:48;;;;;;;4.97;2.88;;;-2.70;99.90;;;;;;5092733;28;20004;-83
2022/03/07 00:53:17;;;;;;;8.57;2.70;;;-2.90;99.90;;;;;;5090366;28;20008;-83
2022/03/07 00:55:44;;;;;;;6.80;2.45;;;-2.70;99.90;;;;;;5084864;28;20017;-83
2022/03/07 00:58:10;;;;;;;6.75;2.63;;;-2.80;99.90;;;;;;5086302;28;20225;-83
2022/03/07 01:00:36;;;;;;;8.50;3.08;;;-2.80;99.90;;;;;;5081866;28;20012;-83
2022/03/07 01:03:06;;;;;;;7.32;3.08;;;-2.80;99.90;;;;;;5089827;28;20020;-83
2022/03/07 01:05:32;;;;;;;7.22;3.25;;;-2.70;99.90;;;;;;5098353;28;20071;-83
2022/03/07 01:07:58;;;;;;;8.65;2.67;;;-2.80;99.90;;;;;;5091232;28;20016;-83
2022/03/07 01:10:24;;;;;;;5.47;2.45;;;-2.90;99.90;;;;;;5077904;28;20017;-83
2022/03/07 01:12:50;;;;;;;6.03;2.40;;;-2.90;99.90;;;;;;5078661;28;20017;-82
2022/03/07 01:15:16;;;;;;;8.38;2.80;;;-2.90;99.90;;;;;;5078673;28;20059;-82
2022/03/07 01:17:42;;;;;;;6.65;2.80;;;-2.80;99.90;;;;;;5077857;28;20017;-83
2022/03/07 01:20:09;;;;;;;6.38;2.83;;;-2.90;99.90;;;;;;5086009;28;20009;-82
2022/03/07 01:22:35;;;;;;;5.30;2.83;;;-3.00;99.90;;;;;;5078039;28;20124;-82
2022/03/07 01:25:03;;;;;;;9.93;3.17;;;-3.00;99.90;;;;;;5085588;28;20028;-82
2022/03/07 01:27:28;;;;;;;9.10;2.85;;;-3.00;99.90;;;;;;5077729;28;20100;-82
2022/03/07 01:29:54;;;;;;;9.18;2.42;;;-3.10;99.90;;;;;;5077301;28;20020;-82
2022/03/07 01:32:20;;;;;;;11.68;2.58;;;-3.10;99.90;;;;;;5077069;28;20021;-82
2022/03/07 01:34:46;;;;;;;9.18;2.80;;;-3.20;99.90;;;;;;5088614;28;20029;-82
2022/03/07 01:37:12;;;;;;;5.72;2.75;;;-3.20;99.90;;;;;;5089527;28;20019;-82
2022/03/07 01:39:37;;;;;;;8.68;3.03;;;-3.10;99.90;;;;;;5080094;28;20021;-82
2022/03/07 01:42:03;;;;;;;6.75;2.60;;;-3.10;99.90;;;;;;5077189;28;20080;-82
2022/03/07 01:44:29;;;;;;;5.47;2.45;;;-3.10;99.90;;;;;;5087259;28;20094;-82
2022/03/07 01:46:56;;;;;;;11.23;3.03;;;-3.20;99.90;;;;;;5090513;28;20016;-82
2022/03/07 01:49:23;;;;;;;11.45;3.25;;;-3.20;99.90;;;;;;5089476;28;20021;-82
2022/03/07 01:51:49;;;;;;;5.78;2.60;;;-3.10;99.90;;;;;;5097308;28;20027;-82
2022/03/07 01:54:17;;;;;;;5.30;2.80;;;-3.20;99.90;;;;;;5097700;28;20023;-82
2022/03/07 01:56:45;;;;;;;4.13;2.70;;;-3.00;99.90;;;;;;5081635;28;20017;-82
2022/03/07 01:59:19;;;;;;;6.53;2.92;;;-2.90;99.90;;;;;;5078190;28;20013;-82
2022/03/07 02:01:44;;;;;;;7.47;3.20;;;-3.20;99.90;;;;;;5090164;28;20013;-82
2022/03/07 02:04:10;;;;;;;7.53;3.13;;;-3.30;99.90;;;;;;5089057;28;20032;-82
2022/03/07 02:06:38;;;;;;;12.15;2.78;;;-3.40;99.90;;;;;;5081204;28;20020;-82
2022/03/07 02:09:04;;;;;;;5.15;2.90;;;-3.30;99.90;;;;;;5079597;28;20042;-82
2022/03/07 02:11:30;;;;;;;7.72;2.95;;;-3.40;95.50;;;;;;5096245;28;20021;-82
2022/03/07 02:13:55;;;;;;;7.45;3.25;;;-3.40;99.90;;;;;;5097036;28;20039;-82
2022/03/07 02:16:21;;;;;;;12.07;3.88;;;-3.40;99.90;;;;;;5078189;28;20025;-82
2022/03/07 02:18:47;;;;;;;5.60;2.75;;;-3.30;99.90;;;;;;5078542;28;20034;-82
2022/03/07 02:21:17;;;;;;;7.18;2.85;;;-3.40;97.80;;;;;;5077276;28;20013;-83
2022/03/07 02:23:45;;;;;;;6.30;2.45;;;-3.60;60.50;;;;;;5083525;28;20013;-83
2022/03/07 02:26:12;;;;;;;7.90;2.78;;;-3.60;61.10;;;;;;5091853;28;20067;-83
2022/03/07 02:28:42;;;;;;;9.07;2.90;;;-3.40;99.90;;;;;;5079233;28;20017;-82
2022/03/07 02:31:09;;;;;;;;;;;-3.30;99.90;;;;;;5089219;28;20042;-81
2022/03/07 02:33:34;;;;;;;6.35;2.83;;;-3.40;99.90;;;;;;5087731;28;19901;-82
2022/03/07 02:36:01;;;;;;;6.28;2.58;;;-3.40;99.90;;;;;;5091938;28;20053;-82
2022/03/07 02:38:26;;;;;;;7.80;3.33;;;-3.60;39.30;;;;;;5092993;28;20032;-82
2022/03/07 02:40:52;;;;;;;7.32;3.53;;;-3.50;95.20;;;;;;5079941;28;20017;-82
2022/03/07 02:43:18;;;;;;;7.68;2.90;;;-3.50;70.40;;;;;;5090927;28;20043;-82
2022/03/07 02:45:44;;;;;;;6.45;2.60;;;-3.40;99.90;;;;;;5094467;28;20036;-82
2022/03/07 02:48:11;;;;;;;9.10;3.13;;;-3.40;92.40;;;;;;5096328;28;20052;-82
2022/03/07 02:50:36;;;;;;;5.50;3.00;;;-3.30;77.10;;;;;;5096242;28;20025;-82
2022/03/07 02:53:03;;;;;;;8.45;2.97;;;-3.40;34.90;;;;;;5081118;28;20028;-82
2022/03/07 02:55:30;;;;;;;5.97;2.33;;;-3.50;1.00;;;;;;5087910;28;20088;-82
2022/03/07 02:57:56;;;;;;;8.35;2.75;;;-3.60;1.00;;;;;;5078531;28;20017;-82
2022/03/07 03:00:21;;;;;;;5.20;2.65;;;-3.50;1.00;;;;;;5080649;28;20027;-81
2022/03/07 03:02:47;;;;;;;10.10;2.47;;;-3.50;3.30;;;;;;5079977;28;20018;-82
2022/03/07 03:05:12;;;;;;;7.07;2.67;;;-3.50;1.80;;;;;;5092835;28;20032;-82
2022/03/07 03:07:38;;;;;;;6.07;2.20;;;-3.60;1.00;;;;;;5076002;28;20021;-82
2022/03/07 03:10:05;;;;;;;6.15;2.70;;;-3.50;1.00;;;;;;5084565;28;20044;-82
2022/03/07 03:12:30;;;;;;;14.93;2.88;;;-3.50;1.00;;;;;;5075952;28;20029;-82
2022/03/07 03:14:56;;;;;;;5.85;2.50;;;-3.50;1.00;;;;;;5084294;28;20027;-83
2022/03/07 03:17:21;;;;;;;6.95;2.53;;;-3.40;1.00;;;;;;5091930;28;20028;-83
2022/03/07 03:19:48;;;;;;;9.93;3.03;;;-3.40;1.00;;;;;;5083279;28;20028;-83
2022/03/07 03:22:13;;;;;;;4.82;2.60;;;-3.50;1.00;;;;;;5099654;28;20030;-82
2022/03/07 03:24:39;;;;;;;4.78;2.83;;;-3.40;1.00;;;;;;5088442;28;20052;-82
2022/03/07 03:27:05;;;;;;;7.68;3.20;;;-3.60;1.00;;;;;;5079956;28;20044;-83
2022/03/07 03:29:31;;;;;;;8.40;2.80;;;-3.60;1.00;;;;;;5080188;28;20097;-82
2022/03/07 03:31:57;;;;;;;6.00;2.80;;;-3.40;1.00;;;;;;5079969;28;20012;-82
2022/03/07 03:34:23;;;;;;;7.63;2.92;;;-3.60;1.00;;;;;;5080052;28;20039;-82
2022/03/07 03:36:48;;;;;;;8.80;2.97;;;-3.70;1.00;;;;;;5088324;28;20041;-82
2022/03/07 03:39:14;;;;;;;7.63;2.92;;;-3.60;1.00;;;;;;5080457;28;20072;-83
2022/03/07 03:41:40;;;;;;;5.63;3.58;;;-3.70;1.00;;;;;;5080424;28;20105;-82
2022/03/07 03:44:06;;;;;;;7.85;3.03;;;-3.50;1.00;;;;;;5085044;28;20021;-82
2022/03/07 03:46:31;;;;;;;9.07;3.83;;;-3.70;1.00;;;;;;5099718;28;20091;-82
2022/03/07 03:48:57;;;;;;;7.25;3.88;;;-3.60;1.00;;;;;;5100115;28;20054;-82
2022/03/07 03:51:23;;;;;;;9.80;5.43;;;-3.50;1.00;;;;;;5085117;28;20021;-82
2022/03/07 03:53:48;;;;;;;7.45;3.05;;;-3.60;1.00;;;;;;5091440;28;20036;-81
2022/03/07 03:56:14;;;;;;;6.57;2.97;;;-3.80;1.00;;;;;;5098889;28;20023;-81
2022/03/07 03:58:40;;;;;;;7.18;2.95;;;-3.90;1.00;;;;;;5083263;28;20102;-82
2022/03/07 04:01:05;;;;;;;7.50;2.90;;;-3.80;1.00;;;;;;5080074;28;20164;-82
2022/03/07 04:03:31;;;;;;;9.45;3.20;;;-3.80;1.00;;;;;;5086816;28;20016;-82
2022/03/07 04:05:57;;;;;;;7.63;2.60;;;-3.90;1.00;;;;;;5091286;28;20083;-82
2022/03/07 04:08:23;;;;;;;5.70;2.58;;;-3.90;1.00;;;;;;5085735;28;20037;-82
2022/03/07 04:10:48;;;;;;;7.53;3.10;;;-4.00;1.00;;;;;;5088907;28;20017;-82
2022/03/07 04:13:14;;;;;;;6.05;2.55;;;-3.90;1.00;;;;;;5089680;28;20036;-81
2022/03/07 04:15:40;;;;;;;8.10;2.78;;;-3.80;1.00;;;;;;5099552;28;20048;-82
2022/03/07 04:18:08;;;;;;;8.07;2.40;;;-3.90;1.00;;;;;;5079012;28;20035;-82
2022/03/07 04:20:34;;;;;;;6.38;2.70;;;-4.00;1.00;;;;;;5076538;28;20028;-82
2022/03/07 04:23:01;;;;;;;10.88;2.85;;;-4.00;1.00;;;;;;5079850;28;20025;-82
2022/03/07 04:25:27;;;;;;;7.50;2.50;;;-3.90;1.00;;;;;;5073964;28;20028;-82
2022/03/07 04:27:52;;;;;;;7.15;2.83;;;-4.00;1.00;;;;;;5079333;28;20017;-82
2022/03/07 04:30:19;;;;;;;8.23;2.78;;;-4.10;99.90;;;;;;5087153;28;20031;-82
2022/03/07 04:32:45;;;;;;;7.85;3.33;;;-4.10;99.90;;;;;;5094087;28;20016;-82
2022/03/07 04:35:11;;;;;;;6.90;2.75;;;-4.10;99.90;;;;;;5091045;28;20032;-82
2022/03/07 04:37:40;;;;;;;5.07;2.95;;;-4.00;1.00;;;;;;5075409;28;20028;-81
2022/03/07 04:40:11;;;;;;;5.88;2.70;;;-3.90;1.00;;;;;;5077108;28;20017;-82
2022/03/07 04:42:37;;;;;;;7.97;3.03;;;-3.60;1.00;;;;;;5066957;28;20018;-82
2022/03/07 04:45:03;;;;;;;5.65;2.78;;;-3.60;1.00;;;;;;5064964;28;20043;-82
2022/03/07 04:47:29;;;;;;;5.05;2.25;;;-3.80;1.00;;;;;;5075600;28;20021;-83
2022/03/07 04:49:54;;;;;;;7.63;2.78;;;-3.80;1.00;;;;;;5092559;28;20027;-82
2022/03/07 04:52:20;;;;;;;7.30;2.60;;;-3.40;8.20;;;;;;5081092;28;20033;-82
2022/03/07 04:54:45;;;;;;;6.30;2.63;;;-3.30;34.70;;;;;;5074322;28;20029;-82
2022/03/07 04:57:11;;;;;;;3.90;2.50;;;-3.50;1.00;;;;;;5068493;28;20017;-82
2022/03/07 04:59:37;;;;;;;5.70;2.90;;;-3.60;1.00;;;;;;5078420;28;20009;-83
2022/03/07 05:02:03;;;;;;;6.28;2.75;;;-3.50;4.20;;;;;;5069696;28;20037;-82
2022/03/07 05:04:28;;;;;;;7.13;2.63;;;-3.50;1.00;;;;;;5069733;28;20040;-82
2022/03/07 05:06:54;;;;;;;4.18;2.40;;;-3.60;1.00;;;;;;5079657;28;20016;-83
2022/03/07 05:09:19;;;;;;;7.68;2.58;;;-3.70;1.00;;;;;;5066393;28;20029;-80
2022/03/07 05:11:45;;;;;;;6.07;2.28;;;-3.80;1.00;;;;;;5042567;28;20505;-82
2022/03/07 05:14:11;;;;;;;4.97;2.38;;;-3.60;1.00;;;;;;5076883;28;20016;-82
2022/03/07 05:16:36;;;;;;;6.32;2.78;;;-3.40;6.10;;;;;;5097711;28;20017;-82
2022/03/07 05:19:02;;;;;;;6.30;2.58;;;-3.50;2.40;;;;;;5090072;28;20024;-82
2022/03/07 05:21:29;;;;;;;4.35;2.67;;;-3.50;25.00;;;;;;5086336;28;20025;-81
2022/03/07 05:23:54;;;;;;;4.60;2.80;;;-3.40;1.00;;;;;;5074791;28;20017;-79
2022/03/07 05:26:20;;;;;;;6.72;2.78;;;-3.50;1.00;;;;;;5065947;28;20400;-80
2022/03/07 05:28:45;;;;;;;4.53;3.00;;;-3.50;1.00;;;;;;5079591;28;20578;-79
2022/03/07 05:31:13;;;;;;;6.28;3.35;;;-3.20;35.10;;;;;;5076265;28;20063;-79
2022/03/07 05:33:39;;;;;;;6.43;3.10;;;-3.10;75.10;;;;;;5093255;28;20072;-81
2022/03/07 05:36:05;;;;;;;6.03;3.20;;;-3.30;9.60;;;;;;5084334;28;20039;-81
2022/03/07 05:38:31;;;;;;;3.90;2.70;;;-3.30;20.90;;;;;;5082395;28;20306;-81
2022/03/07 05:40:57;;;;;;;4.68;2.90;;;-3.20;36.80;;;;;;5079847;28;20058;-81
2022/03/07 05:43:22;;;;;;;6.00;3.30;;;-3.40;1.00;;;;;;5072218;28;20021;-81
2022/03/07 05:45:48;;;;;;;5.30;3.38;;;-3.50;1.00;;;;;;5084925;28;20033;-81
2022/03/07 05:48:13;;;;;;;6.43;2.88;;;-3.40;1.00;;;;;;5087870;28;20032;-81
2022/03/07 05:50:39;;;;;;;8.82;3.22;;;-3.30;2.40;;;;;;5082943;28;20052;-81
2022/03/07 05:53:06;;;;;;;7.35;3.10;;;-3.30;1.00;;;;;;5075017;28;20028;-81
2022/03/07 05:55:31;;;;;;;7.60;3.22;;;-3.50;1.00;;;;;;5082125;28;20055;-81
2022/03/07 05:58:00;;;;;;;6.10;3.72;;;-3.60;1.00;;;;;;5073362;28;20052;-80
2022/03/07 06:00:26;;;;;;;5.30;3.03;;;-3.50;1.00;;;;;;5076653;28;20043;-81
2022/03/07 06:02:51;;;;;;;7.55;3.33;;;-3.60;1.00;;;;;;5086868;28;20041;-80
2022/03/07 06:05:18;;;;;;;7.40;3.53;;;-3.50;1.00;;;;;;5096470;28;20046;-80
2022/03/07 06:07:43;;;;;;;6.75;3.80;;;-3.60;1.00;;;;;;5087486;28;20033;-80
2022/03/07 06:10:09;;;;;;;5.45;3.38;;;-3.70;1.00;;;;;;5079232;28;20054;-79
2022/03/07 06:12:35;;;;;;;6.13;3.45;;;-3.50;1.00;;;;;;5078016;28;20031;-80
2022/03/07 06:15:03;;;;;;;6.13;3.13;;;-3.50;1.00;;;;;;5083595;28;20025;-80
2022/03/07 06:17:33;;;;;;;5.75;3.50;;;-3.60;1.00;;;;;;5079064;28;20028;-80
2022/03/07 06:20:00;;;;;;;6.45;3.80;;;-3.70;1.00;;;;;;5084287;28;20577;-80
2022/03/07 06:22:25;;;;;;;7.45;3.80;;;-3.70;1.00;;;;;;5093540;28;20558;-80
2022/03/07 06:24:51;;;;;;;4.88;3.55;;;-3.50;1.00;;;;;;5085279;28;20036;-81
2022/03/07 06:27:16;;;;;;;9.55;3.75;;;-3.60;1.00;;;;;;5085055;28;20088;-80
2022/03/07 06:29:42;;;;;;;6.05;3.78;;;-3.60;99.90;;;;;;5092680;28;20029;-80
2022/03/07 06:32:08;;;;;;;8.68;3.97;;;-3.40;1.00;;;;;;5085881;28;20075;-80
2022/03/07 06:34:34;;;;;;;7.05;3.90;;;-3.20;1.00;;;;;;5095669;28;20029;-80
2022/03/07 06:37:00;;;;;;;8.13;4.50;;;-3.10;1.00;;;;;;5093156;28;20032;-81
2022/03/07 06:39:27;;;;;;;7.40;4.15;;;-2.90;1.00;;;;;;5074189;28;20024;-81
2022/03/07 06:41:56;;;;;;;4.70;3.63;;;-3.00;1.00;;;;;;5080676;28;20021;-80
2022/03/07 06:44:25;;;;;;;7.60;4.13;;;-3.20;1.00;;;;;;5083330;28;20096;-80
2022/03/07 06:46:50;;;;;;;6.90;3.83;;;-3.20;1.00;;;;;;5077089;28;20025;-81
2022/03/07 06:49:16;;;;;;;8.20;4.70;;;-3.20;1.00;;;;;;5093071;28;20013;-81
2022/03/07 06:51:42;;;;;;;6.88;4.13;;;-3.00;1.00;;;;;;5090248;28;20013;-81
2022/03/07 06:54:07;;;;;;;8.70;4.13;;;-2.80;1.00;;;;;;5079071;28;20017;-81
2022/03/07 06:56:33;;;;;;;6.75;4.60;;;-2.70;1.00;;;;;;5081380;28;20016;-82
2022/03/07 06:58:59;;;;;;;7.43;4.38;;;-2.80;1.00;;;;;;5088165;28;20021;-82
2022/03/07 07:01:25;;;;;;;7.50;4.95;;;-2.80;1.00;;;;;;5079259;28;20084;-82
2022/03/07 07:03:50;;;;;;;8.32;5.20;;;-2.60;1.00;;;;;;5089763;28;20318;-82
2022/03/07 07:06:16;;;;;;;7.20;4.38;;;-2.70;1.00;;;;;;5092128;28;20029;-82
2022/03/07 07:08:42;;;;;;;8.32;4.53;;;-2.70;1.00;;;;;;5077049;28;20069;-81
2022/03/07 07:11:07;;;;;;;7.60;4.95;;;-2.60;1.00;;;;;;5084602;28;20047;-82
2022/03/07 07:13:33;;;;;;;8.15;5.07;;;-2.50;1.00;;;;;;5080453;28;20068;-82
2022/03/07 07:15:58;;;;;;;10.05;5.28;;;-2.40;1.00;;;;;;5079803;28;20059;-82
2022/03/07 07:18:25;;;;;;;7.15;4.85;;;-2.10;1.00;;;;;;5091381;28;20040;-82
2022/03/07 07:20:52;;;;;;;11.82;6.43;;;-0.70;11.10;;;;;;5084391;28;20238;-82
2022/03/07 07:23:21;;;;;;;14.48;8.23;;;3.00;99.90;;;;;;5080757;28;20024;-82
2022/03/07 07:25:48;;;;;;;15.30;8.95;;;6.20;18.40;;;;;;5063051;28;20060;-82
2022/03/07 07:28:14;;;;;;;15.27;8.80;;;8.40;99.90;;;;;;5062261;28;20025;-82
2022/03/07 07:30:40;;;;;;;13.25;9.48;;;9.30;4.50;;;;;;5060868;28;20032;-82
2022/03/07 07:33:05;;;;;;;14.13;9.18;;;9.30;1.00;;;;;;5053780;28;20041;-81
2022/03/07 07:35:33;;;;;;;14.07;7.88;;;10.50;1.00;;;;;;5053749;28;20080;-82
2022/03/07 07:38:00;;;;;;;14.55;7.93;;;11.30;99.90;;;;;;5059370;28;20016;-83
2022/03/07 07:40:25;;;;;;;8.77;5.90;;;13.00;99.90;;;;;;5053260;28;20067;-83
2022/03/07 07:42:51;;;;;;;12.15;5.15;;;12.30;99.90;;;;;;5065250;28;20025;-83
2022/03/07 07:45:16;;;;;;;4.97;3.42;;;13.20;99.90;;;;;;5066978;28;20476;-83
2022/03/07 07:47:43;;;;;;;5.97;3.85;;;13.10;99.90;;;;;;5057081;28;20456;-83
2022/03/07 07:50:09;;;;;;;4.97;3.22;;;14.20;99.90;;;;;;5051320;28;20072;-83
2022/03/07 07:52:35;;;;;;;6.47;3.50;;;15.70;99.90;;;;;;5060373;28;20495;-83
2022/03/07 07:55:02;;;;;;;4.40;2.88;;;16.00;99.90;;;;;;5061428;28;20471;-84
2022/03/07 07:57:28;;;;;;;3.05;2.30;;;15.90;99.90;;;;;;5055071;28;20025;-84
2022/03/07 07:59:53;;;;;;;5.75;2.63;;;16.60;99.90;;;;;;5069502;28;20016;-84
2022/03/07 08:02:19;;;;;;;5.18;2.33;;;16.90;99.90;;;;;;5061490;28;20020;-84
2022/03/07 08:04:45;;;;;;;4.50;2.65;;;16.60;99.90;;;;;;5061311;28;20024;-84
2022/03/07 08:07:11;;;;;;;5.65;3.00;;;17.90;99.90;;;;;;5064263;28;20032;-84
2022/03/07 08:09:36;;;;;;;3.75;3.30;;;18.60;99.90;;;;;;5062465;28;20391;-84
2022/03/07 08:12:02;;;;;;;4.07;3.28;;;18.10;99.90;;;;;;5067996;28;20025;-84
2022/03/07 08:14:28;;;;;;;4.40;2.80;;;19.20;99.90;;;;;;5055927;28;20024;-85
2022/03/07 08:16:54;;;;;;;4.57;3.28;;;19.40;99.90;;;;;;5058859;28;20028;-84
2022/03/07 08:19:19;;;;;;;7.57;3.38;;;17.90;99.90;;;;;;5062540;28;20047;-85
2022/03/07 08:21:45;;;;;;;7.80;3.53;;;18.80;99.90;;;;;;5065074;28;20112;-85
2022/03/07 08:24:11;;;;;;;6.38;3.20;;;19.90;99.90;;;;;;5072557;28;20085;-84
2022/03/07 08:26:38;;;;;;;5.07;3.50;;;20.40;99.90;;;;;;5058721;28;20057;-84
2022/03/07 08:29:04;;;;;;;6.18;3.70;;;21.00;99.90;;;;;;5052776;28;20546;-84
2022/03/07 08:31:30;;;;;;;5.55;3.85;;;22.70;99.90;;;;;;5061176;28;20029;-84
2022/03/07 08:33:56;;;;;;;8.07;4.25;;;23.90;99.90;;;;;;5060464;28;20384;-84
2022/03/07 08:36:21;;;;;;;7.55;3.53;;;24.00;99.90;;;;;;5060556;28;20039;-85
2022/03/07 08:38:47;;;;;;;5.32;3.58;;;25.60;99.90;;;;;;5063399;28;20469;-84
2022/03/07 08:41:12;;;;;;;5.30;3.70;;;25.70;99.90;;;;;;5053508;28;20075;-85
2022/03/07 08:43:40;;;;;;;7.00;4.57;;;26.70;99.90;;;;;;5060337;28;20028;-85
2022/03/07 08:46:05;;;;;;;7.82;5.35;;;26.80;99.90;;;;;;5055877;28;20048;-85
2022/03/07 08:48:31;;;;;;;6.57;4.97;;;27.00;99.90;;;;;;5053571;28;20068;-84
2022/03/07 08:50:57;;;;;;;6.47;5.40;;;27.20;99.90;;;;;;5064791;28;20062;-85
2022/03/07 08:53:22;;;;;;;7.43;5.00;;;27.30;99.90;;;;;;5072593;28;20066;-84
2022/03/07 08:55:48;;;;;;;8.30;5.65;;;27.70;99.90;;;;;;5073176;28;20591;-83
2022/03/07 08:58:14;;;;;;;7.88;6.68;;;28.20;99.90;;;;;;5065224;28;20513;-84
2022/03/07 09:00:39;;;;;;;8.63;5.80;;;29.10;99.90;;;;;;5071048;28;20028;-84
2022/03/07 09:03:05;;;;;;;8.75;5.10;;;29.10;99.90;;;;;;5039598;28;20395;-84
2022/03/07 09:05:31;;;;;;;6.97;5.45;;;29.10;99.90;;;;;;5077077;28;20021;-83
2022/03/07 09:07:57;;;;;;;9.35;5.63;;;29.10;99.90;;;;;;5075687;28;20032;-85
2022/03/07 09:10:23;;;;;;;7.78;5.20;;;29.10;99.90;;;;;;5075258;28;20020;-85
2022/03/07 09:12:49;;;;;;;8.38;5.57;;;28.30;99.90;;;;;;5064839;28;20162;-85
2022/03/07 09:15:15;;;;;;;9.00;5.85;;;28.60;99.90;;;;;;5058322;28;20052;-85
2022/03/07 09:17:41;;;;;;;10.27;5.45;;;29.10;99.90;;;;;;5054745;28;20384;-85
2022/03/07 09:20:08;;;;;;;8.82;6.10;;;30.10;99.90;;;;;;5046921;28;20025;-85
2022/03/07 09:22:35;;;;;;;7.55;5.63;;;30.30;99.90;;;;;;5047271;28;20025;-85
2022/03/07 09:25:02;;;;;;;7.90;5.43;;;30.30;99.90;;;;;;5062238;28;20064;-85
2022/03/07 09:27:27;;;;;;;9.63;5.40;;;30.20;99.90;;;;;;5054728;28;20495;-85
2022/03/07 09:29:53;;;;;;;5.68;4.72;;;30.50;99.90;;;;;;5049161;28;20136;-85
2022/03/07 09:32:18;;;;;;;7.22;4.90;;;29.80;99.90;;;;;;5039221;28;20501;-85
2022/03/07 09:34:44;;;;;;;7.55;4.22;;;28.80;99.90;;;;;;5052356;28;20044;-85
2022/03/07 09:37:10;;;;;;;6.38;3.45;;;29.40;99.90;;;;;;5051887;28;20388;-85
2022/03/07 09:39:35;;;;;;;4.95;3.75;;;30.60;99.90;;;;;;5065393;28;20116;-86
2022/03/07 09:42:02;;;;;;;6.03;3.83;;;29.40;99.90;;;;;;5061248;28;20072;-86
2022/03/07 09:44:28;;;;;;;3.30;2.70;;;30.10;99.90;;;;;;5053996;28;20028;-86
2022/03/07 09:46:58;;;;;;;4.63;3.50;;;29.80;99.90;;;;;;5038618;28;20021;-85
2022/03/07 09:49:25;;;;;;;3.63;3.33;;;30.50;99.90;;;;;;5054159;28;20035;-86
2022/03/07 09:51:52;;;;;;;4.15;3.08;;;30.00;99.90;;;;;;5064220;28;20491;-86
2022/03/07 09:54:18;;;;;;;4.50;3.58;;;30.10;99.90;;;;;;5053220;28;20116;-85
2022/03/07 09:56:44;;;;;;;5.15;2.88;;;27.30;99.90;;;;;;5060697;28;20071;-86
2022/03/07 09:59:10;;;;;;;4.05;3.47;;;29.50;99.90;;;;;;5048090;28;20029;-86
2022/03/07 10:01:36;;;;;;;4.18;2.90;;;28.80;99.90;;;;;;5054400;28;20419;-86
2022/03/07 10:04:12;;;;;;;5.30;2.97;;;29.70;99.90;;;;;;5048252;28;20025;-85
2022/03/07 10:06:47;;;;;;;4.20;3.00;;;29.40;99.90;;;;;;5051535;28;20083;-86
2022/03/07 10:09:22;;;;;;;4.03;3.10;;;29.50;99.90;;;;;;5060048;28;20444;-85
2022/03/07 10:11:53;;;;;;;5.78;3.53;;;29.10;99.90;;;;;;5063420;28;20029;-86
2022/03/07 10:14:29;;;;;;;5.03;3.10;;;29.00;99.90;;;;;;5047262;28;20026;-86
2022/03/07 10:16:55;;;;;;;3.63;2.47;;;30.00;99.90;;;;;;5063833;28;20033;-86
2022/03/07 10:19:20;;;;;;;4.10;2.20;;;28.50;99.90;;;;;;5041929;28;20070;-86
2022/03/07 10:21:49;;;;;;;4.20;2.40;;;25.10;99.90;;;;;;5054118;28;20155;-86
2022/03/07 10:24:16;;;;;;;4.25;2.00;;;26.20;99.90;;;;;;5052957;28;20032;-86
2022/03/07 10:26:42;;;;;;;4.55;2.17;;;24.50;99.90;;;;;;5036344;28;20069;-86
2022/03/07 10:29:08;;;;;;;3.60;2.47;;;24.20;99.90;;;;;;5057358;28;20124;-85
2022/03/07 10:31:34;;;;;;;3.35;2.53;;;23.70;99.90;;;;;;5062348;28;20035;-85
2022/03/07 10:34:04;;;;;;;4.00;2.63;;;23.60;99.90;;;;;;5063155;28;20020;-85
2022/03/07 10:36:31;;;;;;;;;;;21.50;99.90;;;;;;5043353;28;20032;-86
2022/03/07 10:38:56;;;;;;;6.35;3.00;;;20.90;99.90;;;;;;5066101;28;20003;-86
2022/03/07 10:41:39;;;;;;;4.57;2.50;;;19.20;99.90;;;;;;5067461;28;20123;-86
2022/03/07 10:44:07;;;;;;;3.70;2.80;;;16.90;99.90;;;;;;5050024;28;20476;-85
2022/03/07 10:46:33;;;;;;;4.97;2.40;;;14.20;99.90;;;;;;5058136;28;20033;-85
2022/03/07 10:48:59;;;;;;;3.88;2.60;;;14.20;99.90;;;;;;5051937;28;20515;-86
2022/03/07 10:51:27;;;;;;;4.00;2.50;;;13.00;99.90;;;;;;5052495;28;20035;-85
2022/03/07 10:53:54;;;;;;;5.22;2.58;;;12.90;99.90;;;;;;5053033;28;20024;-86
2022/03/07 10:56:21;;;;;;;3.63;2.78;;;12.30;99.90;;;;;;5053151;28;20025;-85
2022/03/07 10:58:55;;;;;;;4.47;2.50;;;12.90;99.90;;;;;;5063498;28;20020;-86
2022/03/07 11:01:32;;;;;;;3.53;2.70;;;12.10;99.90;;;;;;5052699;28;20021;-85
2022/03/07 11:03:58;;;;;;;4.47;2.40;;;12.40;99.90;;;;;;5062983;28;20021;-85
2022/03/07 11:06:28;;;;;;;3.85;2.70;;;12.70;99.90;;;;;;5067475;28;20479;-85
2022/03/07 11:08:54;;;;;;;5.07;2.80;;;12.30;99.90;;;;;;5029989;28;20052;-85
2022/03/07 11:11:21;;;;;;;6.20;3.25;;;11.60;99.90;;;;;;5057233;28;20057;-85
2022/03/07 11:13:53;;;;;;;4.25;2.53;;;10.90;99.90;;;;;;5058393;28;20108;-86
2022/03/07 11:16:21;;;;;;;5.82;2.50;;;10.40;99.90;;;;;;5057761;28;20025;-85
2022/03/07 11:18:54;;;;;;;4.40;2.85;;;10.60;99.90;;;;;;5057551;28;20021;-85
2022/03/07 11:21:21;;;;;;;5.00;2.90;;;10.50;99.90;;;;;;5058070;28;20021;-85
2022/03/07 11:23:47;;;;;;;4.43;3.05;;;10.30;99.90;;;;;;5051889;28;20021;-85
2022/03/07 11:26:14;;;;;;;5.13;2.88;;;10.30;99.90;;;;;;5049984;28;20090;-85
2022/03/07 11:28:40;;;;;;;4.32;2.90;;;10.20;99.90;;;;;;5049883;28;20025;-85
2022/03/07 11:31:05;;;;;;;3.70;2.53;;;10.00;99.90;;;;;;5050889;28;20527;-85
2022/03/07 11:33:34;;;;;;;4.57;2.78;;;10.40;99.90;;;;;;5044804;28;20108;-86
2022/03/07 11:36:02;;;;;;;5.95;3.35;;;10.60;99.90;;;;;;5045754;28;20025;-86
2022/03/07 11:38:31;;;;;;;4.90;3.45;;;10.80;99.90;;;;;;5038524;28;20021;-85
2022/03/07 11:41:07;;;;;;;4.35;2.80;;;10.60;99.90;;;;;;5045221;28;20025;-86
2022/03/07 11:43:46;;;;;;;3.97;2.65;;;10.80;99.90;;;;;;5032362;28;20039;-86
2022/03/07 11:46:21;;;;;;;4.00;2.20;;;11.10;99.90;;;;;;5050717;28;20030;-86
2022/03/07 11:48:47;;;;;;;4.35;3.03;;;11.20;99.90;;;;;;5046601;28;20046;-86
2022/03/07 11:51:21;;;;;;;4.32;2.90;;;10.50;99.90;;;;;;5043793;28;20021;-85
2022/03/07 11:53:48;;;;;;;2.85;2.53;;;10.40;99.90;;;;;;5047644;28;20036;-85
2022/03/07 11:56:19;;;;;;;5.25;2.67;;;11.00;99.90;;;;;;5046047;28;20029;-85
2022/03/07 11:58:50;;;;;;;5.57;3.15;;;11.40;99.90;;;;;;5044281;28;20095;-86
2022/03/07 12:01:17;;;;;;;4.20;3.13;;;11.40;99.90;;;;;;5044826;28;20494;-86
2022/03/07 12:03:43;;;;;;;5.47;3.00;;;11.40;99.90;;;;;;5041868;28;20024;-86
2022/03/07 12:06:11;;;;;;;4.43;2.63;;;11.00;99.90;;;;;;5055749;28;20031;-85
2022/03/07 12:08:43;;;;;;;4.07;2.45;;;11.00;99.90;;;;;;5048433;28;20026;-85
2022/03/07 12:11:10;;;;;;;3.72;2.92;;;10.10;99.90;;;;;;5041835;28;20469;-86
2022/03/07 12:13:47;;;;;;;4.00;2.95;;;9.70;99.90;;;;;;5041282;28;20029;-86
2022/03/07 12:16:27;;;;;;;5.35;3.15;;;10.20;99.90;;;;;;5047458;28;20071;-85
2022/03/07 12:19:12;;;;;;;6.93;2.88;;;11.00;99.90;;;;;;5049778;28;20108;-85
2022/03/07 12:21:43;;;;;;;3.75;2.55;;;10.70;99.90;;;;;;5052959;28;20036;-87
2022/03/07 12:24:12;;;;;;;3.80;2.83;;;10.90;99.90;;;;;;5053275;28;20036;-86
2022/03/07 12:26:46;;;;;;;3.85;2.85;;;10.80;99.90;;;;;;5067419;28;20055;-86
2022/03/07 12:29:11;;;;;;;4.55;2.15;;;11.10;99.90;;;;;;5069421;28;20506;-86
2022/03/07 12:31:37;;;;;;;4.25;2.47;;;10.50;99.90;;;;;;5061182;28;20044;-86
2022/03/07 12:34:07;;;;;;;4.85;2.67;;;10.20;99.90;;;;;;5061223;28;20116;-86
2022/03/07 12:36:33;;;;;;;4.82;3.45;;;10.10;99.90;;;;;;5071049;28;20107;-86
2022/03/07 12:39:00;;;;;;;3.22;2.35;;;9.60;99.90;;;;;;5073251;28;20119;-87
2022/03/07 12:41:36;;;;;;;3.72;2.65;;;9.30;99.90;;;;;;5064735;28;20479;-86
2022/03/07 12:44:03;;;;;;;4.53;2.55;;;9.60;99.90;;;;;;5057057;28;20070;-86
2022/03/07 12:46:29;;;;;;;3.05;2.10;;;9.70;99.90;;;;;;5055884;28;20044;-86
2022/03/07 12:48:56;;;;;;;4.70;2.60;;;10.10;99.90;;;;;;5061040;28;20464;-86